CMA CGM La Boussole — A8FZ6 — position and weather

sailwx.info

Track history (hours):
 
Tides and Currents Weather Stations Pressure Air Temp Water Temp Dewpoint Dewpoint Depression Visibility Wind Speed Wind Dir Waves Ship Positions

CMA CGM La Boussole

Last reported at 2016-Aug-30 04:33 UTC. Time now 2016-Aug-30 05:01 UTC.
Position N 43°34' E 010°18'.

Length 210.1 m; beam 30.2 m; draft 11.5 m.

Type: Ship (hazmat cat A). MMSI: 636017045.

Date/timePositionNaut miles runAvg speedWind from/ knotsBaromVisibWave heightAir tempDewpointWater temp
2016-Aug-30 04:33N 43°34' E 010°18'0 0.0
2016-Aug-30 03:33N 43°34' E 010°18'0 0.0
2016-Aug-30 02:33N 43°34' E 010°18'0 0.0
2016-Aug-30 01:33N 43°34' E 010°18'0 0.0
2016-Aug-30 00:30N 43°34' E 010°18'0 0.0
2016-Aug-29 23:33N 43°34' E 010°18'0 0.0
2016-Aug-29 22:27N 43°34' E 010°18'0 0.0
2016-Aug-29 21:30N 43°34' E 010°18'0 0.0
2016-Aug-29 20:33N 43°34' E 010°18'0 0.0
2016-Aug-29 19:33N 43°34' E 010°18'0 0.0
2016-Aug-29 18:33N 43°34' E 010°18'0 0.0
2016-Aug-29 17:33N 43°34' E 010°18'0 0.0
2016-Aug-29 16:33N 43°34' E 010°18'0 0.0
2016-Aug-29 15:33N 43°34' E 010°18'0 0.0
2016-Aug-29 14:33N 43°34' E 010°18'0 0.0
2016-Aug-29 13:33N 43°34' E 010°18'0 0.0
2016-Aug-29 12:33N 43°34' E 010°18'0 0.0
2016-Aug-29 11:30N 43°34' E 010°18'0 0.0
2016-Aug-29 10:33N 43°34' E 010°18'0 0.0
2016-Aug-29 09:33N 43°34' E 010°18'5 4.7
2016-Aug-29 08:34N 43°31' E 010°15'1010.5
2016-Aug-29 07:34N 43°23' E 010°05'1313.1
2016-Aug-29 06:34N 43°17' E 009°49'1413.9
2016-Aug-29 05:34N 43°13' E 009°30'1514.6
2016-Aug-29 04:33N 43°09' E 009°11'5215.1
2016-Aug-29 01:08N 42°35' E 008°18'915.0
2016-Aug-29 00:31N 42°29' E 008°09'1414.8
2016-Aug-28 23:34N 42°18' E 007°56'1616.3
2016-Aug-28 22:33N 42°07' E 007°40'1717.2
2016-Aug-28 21:33N 41°54' E 007°24'1717.4
2016-Aug-28 20:33N 41°42' E 007°08'1817.5
2016-Aug-28 19:32N 41°29' E 006°51'1817.5
2016-Aug-28 18:32N 41°17' E 006°35'1717.6
2016-Aug-28 17:34N 41°04' E 006°19'1817.6
2016-Aug-28 16:33N 40°51' E 006°03'1817.6
2016-Aug-28 15:32N 40°39' E 005°46'9116.8
2016-Aug-28 10:07N 39°35' E 004°20'1017.0
2016-Aug-28 09:34N 39°30' E 004°10'1717.1
2016-Aug-28 08:34N 39°21' E 003°51'1717.0
2016-Aug-28 07:33N 39°12' E 003°32'18916.9
2016-Aug-27 20:22N 37°32' E 000°08'1417.0
2016-Aug-27 19:33N 37°24' W 000°07'2017.8
2016-Aug-27 18:25N 37°13' W 000°28'10 9.7
2016-Aug-27 17:21N 37°08' W 000°40'911.3
2016-Aug-27 16:33N 37°03' W 000°49'2119.8
2016-Aug-27 15:30N 36°52' W 001°11'3920.0
2016-Aug-27 13:33N 36°31' W 001°52'2019.4
2016-Aug-27 12:30N 36°22' W 002°15'2119.2
2016-Aug-27 11:23N 36°19' W 002°41'13219.3
2016-Aug-27 04:33N 36°07' W 005°24'1 1.4
2016-Aug-27 03:33N 36°08' W 005°25'0 0.0
2016-Aug-27 02:33N 36°08' W 005°25'0 0.0
2016-Aug-27 01:33N 36°08' W 005°25'0 0.0
2016-Aug-27 00:33N 36°08' W 005°25'0 0.0
2016-Aug-26 23:31N 36°08' W 005°25'0 0.0
2016-Aug-26 22:27N 36°08' W 005°25'0 0.0
2016-Aug-26 21:18N 36°08' W 005°25'0 0.0
2016-Aug-26 19:33N 36°08' W 005°25'0 0.0
2016-Aug-26 18:03N 36°08' W 005°25'0 0.4
2016-Aug-26 17:33N 36°08' W 005°25'3 2.7
2016-Aug-26 16:34N 36°06' W 005°23'9 8.6
2016-Aug-26 15:33N 35°58' W 005°27'25715.9
2016-Aug-25 23:25N 35°27' W 010°42'  
Track history (hours):
 
Tides and Currents Weather Stations Pressure Air Temp Water Temp Dewpoint Dewpoint Depression Visibility Wind Speed Wind Dir Waves Ship Positions

CMA CGM La Boussole

Last reported at 2016-Aug-30 04:33 UTC. Time now 2016-Aug-30 05:01 UTC.
Position N 43°34' E 010°18'.

Length 210.1 m; beam 30.2 m; draft 11.5 m.

Type: Ship (hazmat cat A). MMSI: 636017045.

Date/timePositionNaut miles runAvg speedWind from/ knotsBaromVisibWave heightAir tempDewpointWater temp
2016-Aug-30 04:33N 43°34' E 010°18'0 0.0
2016-Aug-30 03:33N 43°34' E 010°18'0 0.0
2016-Aug-30 02:33N 43°34' E 010°18'0 0.0
2016-Aug-30 01:33N 43°34' E 010°18'0 0.0
2016-Aug-30 00:30N 43°34' E 010°18'0 0.0
2016-Aug-29 23:33N 43°34' E 010°18'0 0.0
2016-Aug-29 22:27N 43°34' E 010°18'0 0.0
2016-Aug-29 21:30N 43°34' E 010°18'0 0.0
2016-Aug-29 20:33N 43°34' E 010°18'0 0.0
2016-Aug-29 19:33N 43°34' E 010°18'0 0.0
2016-Aug-29 18:33N 43°34' E 010°18'0 0.0
2016-Aug-29 17:33N 43°34' E 010°18'0 0.0
2016-Aug-29 16:33N 43°34' E 010°18'0 0.0
2016-Aug-29 15:33N 43°34' E 010°18'0 0.0
2016-Aug-29 14:33N 43°34' E 010°18'0 0.0
2016-Aug-29 13:33N 43°34' E 010°18'0 0.0
2016-Aug-29 12:33N 43°34' E 010°18'0 0.0
2016-Aug-29 11:30N 43°34' E 010°18'0 0.0
2016-Aug-29 10:33N 43°34' E 010°18'0 0.0
2016-Aug-29 09:33N 43°34' E 010°18'5 4.7
2016-Aug-29 08:34N 43°31' E 010°15'1010.5
2016-Aug-29 07:34N 43°23' E 010°05'1313.1
2016-Aug-29 06:34N 43°17' E 009°49'1413.9
2016-Aug-29 05:34N 43°13' E 009°30'1514.6
2016-Aug-29 04:33N 43°09' E 009°11'5215.1
2016-Aug-29 01:08N 42°35' E 008°18'915.0
2016-Aug-29 00:31N 42°29' E 008°09'1414.8
2016-Aug-28 23:34N 42°18' E 007°56'1616.3
2016-Aug-28 22:33N 42°07' E 007°40'1717.2
2016-Aug-28 21:33N 41°54' E 007°24'1717.4
2016-Aug-28 20:33N 41°42' E 007°08'1817.5
2016-Aug-28 19:32N 41°29' E 006°51'1817.5
2016-Aug-28 18:32N 41°17' E 006°35'1717.6
2016-Aug-28 17:34N 41°04' E 006°19'1817.6
2016-Aug-28 16:33N 40°51' E 006°03'1817.6
2016-Aug-28 15:32N 40°39' E 005°46'9116.8
2016-Aug-28 10:07N 39°35' E 004°20'1017.0
2016-Aug-28 09:34N 39°30' E 004°10'1717.1
2016-Aug-28 08:34N 39°21' E 003°51'1717.0
2016-Aug-28 07:33N 39°12' E 003°32'18916.9
2016-Aug-27 20:22N 37°32' E 000°08'1417.0
2016-Aug-27 19:33N 37°24' W 000°07'2017.8
2016-Aug-27 18:25N 37°13' W 000°28'10 9.7
2016-Aug-27 17:21N 37°08' W 000°40'911.3
2016-Aug-27 16:33N 37°03' W 000°49'2119.8
2016-Aug-27 15:30N 36°52' W 001°11'3920.0
2016-Aug-27 13:33N 36°31' W 001°52'2019.4
2016-Aug-27 12:30N 36°22' W 002°15'2119.2
2016-Aug-27 11:23N 36°19' W 002°41'13219.3
2016-Aug-27 04:33N 36°07' W 005°24'1 1.4
2016-Aug-27 03:33N 36°08' W 005°25'0 0.0
2016-Aug-27 02:33N 36°08' W 005°25'0 0.0
2016-Aug-27 01:33N 36°08' W 005°25'0 0.0
2016-Aug-27 00:33N 36°08' W 005°25'0 0.0
2016-Aug-26 23:31N 36°08' W 005°25'0 0.0
2016-Aug-26 22:27N 36°08' W 005°25'0 0.0
2016-Aug-26 21:18N 36°08' W 005°25'0 0.0
2016-Aug-26 19:33N 36°08' W 005°25'0 0.0
2016-Aug-26 18:03N 36°08' W 005°25'0 0.4
2016-Aug-26 17:33N 36°08' W 005°25'3 2.7
2016-Aug-26 16:34N 36°06' W 005°23'9 8.6
2016-Aug-26 15:33N 35°58' W 005°27'25715.9
2016-Aug-25 23:25N 35°27' W 010°42'  

Dump ship's entire track history